createdAt,value
2023-01-29T00:00:06.260Z,17.35
2023-01-29T00:02:39.053Z,18.83
2023-01-29T00:05:25.490Z,22.63
2023-01-29T00:07:53.107Z,19.27
2023-01-29T00:10:19.639Z,22.25
2023-01-29T00:12:45.959Z,20.75
2023-01-29T00:15:12.711Z,19.25
2023-01-29T00:17:39.055Z,21.80
2023-01-29T00:20:05.631Z,20.63
2023-01-29T00:22:31.982Z,17.35
2023-01-29T00:24:58.504Z,20.98
2023-01-29T00:27:24.884Z,20.25
2023-01-29T00:30:09.274Z,18.38
2023-01-29T00:32:36.150Z,22.52
2023-01-29T00:35:02.643Z,20.38
2023-01-29T00:37:29.015Z,22.13
2023-01-29T00:39:55.377Z,23.25
2023-01-29T00:42:40.157Z,23.02
2023-01-29T00:45:06.774Z,21.45
2023-01-29T00:47:36.392Z,22.52
2023-01-29T00:50:04.087Z,21.75
2023-01-29T00:52:30.499Z,23.75
2023-01-29T00:54:58.179Z,22.58
2023-01-29T00:57:25.200Z,21.52
2023-01-29T00:59:53.141Z,20.95
2023-01-29T01:02:39.992Z,21.73
2023-01-29T01:05:07.747Z,22.70
2023-01-29T01:07:34.152Z,23.75
2023-01-29T01:10:19.349Z,22.73
2023-01-29T01:12:45.666Z,23.67
2023-01-29T01:15:12.057Z,21.20
2023-01-29T01:17:40.235Z,19.92
2023-01-29T01:20:08.537Z,23.25
2023-01-29T01:22:35.806Z,21.17
2023-01-29T01:25:02.269Z,17.63
2023-01-29T01:27:28.629Z,22.38
2023-01-29T01:29:55.002Z,20.85
2023-01-29T01:32:21.449Z,21.85
2023-01-29T01:34:47.840Z,23.27
2023-01-29T01:37:14.147Z,19.95
2023-01-29T01:39:40.500Z,23.45
2023-01-29T01:42:11.639Z,18.00
2023-01-29T01:44:53.372Z,21.05
2023-01-29T01:47:22.468Z,19.35
2023-01-29T01:49:48.983Z,19.50
2023-01-29T01:52:16.842Z,18.13
2023-01-29T01:54:44.203Z,19.95
2023-01-29T01:57:15.997Z,17.95
2023-01-29T01:59:46.487Z,17.98
2023-01-29T02:02:32.219Z,19.40
2023-01-29T02:05:17.158Z,20.42
2023-01-29T02:08:04.401Z,18.40
2023-01-29T02:10:32.553Z,21.05
2023-01-29T02:12:58.919Z,23.60
2023-01-29T02:15:25.490Z,21.85
2023-01-29T02:17:51.907Z,18.67
2023-01-29T02:20:24.237Z,17.85
2023-01-29T02:23:13.386Z,22.13
2023-01-29T02:25:58.729Z,18.98
2023-01-29T02:28:31.723Z,26.33
2023-01-29T02:31:06.999Z,21.00
2023-01-29T02:33:41.080Z,18.85
2023-01-29T02:36:15.971Z,22.75
2023-01-29T02:38:42.454Z,20.00
2023-01-29T02:41:15.595Z,20.15
2023-01-29T02:43:44.965Z,19.92
2023-01-29T02:46:15.923Z,18.17
2023-01-29T02:49:00.059Z,20.38
2023-01-29T02:51:45.211Z,19.95
2023-01-29T02:54:20.187Z,25.92
2023-01-29T02:56:50.349Z,30.77
2023-01-29T02:59:19.673Z,25.10
2023-01-29T03:01:48.764Z,23.40
2023-01-29T03:04:18.481Z,25.23
2023-01-29T03:06:51.971Z,21.48
2023-01-29T03:09:27.916Z,21.83
2023-01-29T03:11:58.637Z,23.40
2023-01-29T03:14:51.071Z,22.00
2023-01-29T03:17:18.621Z,23.23
2023-01-29T03:19:46.891Z,25.02
2023-01-29T03:22:23.206Z,21.88
2023-01-29T03:25:08.106Z,21.67
2023-01-29T03:27:57.905Z,21.75
2023-01-29T03:30:46.494Z,24.35
2023-01-29T03:33:32.626Z,28.98
2023-01-29T03:36:02.453Z,22.83
2023-01-29T03:38:32.099Z,25.05
2023-01-29T03:41:19.464Z,26.33
2023-01-29T03:43:57.806Z,22.95
2023-01-29T03:46:34.595Z,29.92
2023-01-29T03:49:16.248Z,29.83
2023-01-29T03:51:50.545Z,26.63
2023-01-29T03:54:16.916Z,25.00
2023-01-29T03:56:56.795Z,26.83
2023-01-29T03:59:41.138Z,28.13
2023-01-29T04:02:40.887Z,26.17
2023-01-29T04:05:13.606Z,26.95
2023-01-29T04:07:52.979Z,27.35
2023-01-29T04:10:21.314Z,27.02
2023-01-29T04:12:52.092Z,30.45
2023-01-29T04:15:20.245Z,26.20
2023-01-29T04:17:51.510Z,30.30
2023-01-29T04:20:24.738Z,31.02
2023-01-29T04:22:51.916Z,25.85
2023-01-29T04:25:28.804Z,25.45
2023-01-29T04:28:11.322Z,26.98
2023-01-29T04:30:43.174Z,25.42
2023-01-29T04:33:21.863Z,28.27
2023-01-29T04:35:48.249Z,29.17
2023-01-29T04:38:19.846Z,25.30
2023-01-29T04:40:58.029Z,28.92
2023-01-29T04:43:28.209Z,18.55
2023-01-29T04:46:00.632Z,26.27
2023-01-29T04:48:30.540Z,28.23
2023-01-29T04:51:23.212Z,26.02
2023-01-29T04:53:59.830Z,24.83
2023-01-29T04:56:33.820Z,26.85
2023-01-29T04:59:09.555Z,27.77
2023-01-29T05:01:37.646Z,32.95
2023-01-29T05:04:09.825Z,28.40
2023-01-29T05:06:36.900Z,26.83
2023-01-29T05:09:03.421Z,26.02
2023-01-29T05:11:30.903Z,29.48
2023-01-29T05:13:58.002Z,28.98
2023-01-29T05:16:27.130Z,32.63
2023-01-29T05:18:53.680Z,26.75
2023-01-29T05:21:20.927Z,32.67
2023-01-29T05:23:53.223Z,25.25
2023-01-29T05:26:39.274Z,29.20
2023-01-29T05:29:05.638Z,31.27
2023-01-29T05:31:31.974Z,27.98
2023-01-29T05:33:58.329Z,28.13
2023-01-29T05:36:26.756Z,25.30
2023-01-29T05:38:53.170Z,33.58
2023-01-29T05:41:19.843Z,28.08
2023-01-29T05:43:46.581Z,28.17
2023-01-29T05:46:12.924Z,30.02
2023-01-29T05:48:39.297Z,29.48
2023-01-29T05:51:05.762Z,32.65
2023-01-29T05:53:32.336Z,29.70
2023-01-29T05:56:01.214Z,28.58
2023-01-29T05:58:27.540Z,31.08
2023-01-29T06:00:53.929Z,33.95
2023-01-29T06:03:20.274Z,28.02
2023-01-29T06:05:46.581Z,31.23
2023-01-29T06:08:13.367Z,30.75
2023-01-29T06:10:39.785Z,29.38
2023-01-29T06:13:06.915Z,30.98
2023-01-29T06:15:33.209Z,29.13
2023-01-29T06:17:59.659Z,27.55
2023-01-29T06:20:26.068Z,27.85
2023-01-29T06:22:52.432Z,27.73
2023-01-29T06:25:18.809Z,26.23
2023-01-29T06:27:45.321Z,27.50
2023-01-29T06:30:11.977Z,31.95
2023-01-29T06:32:38.377Z,28.10
2023-01-29T06:35:04.993Z,23.92
2023-01-29T06:37:31.365Z,26.17
2023-01-29T06:39:57.681Z,25.65
2023-01-29T06:42:27.769Z,26.33
2023-01-29T06:44:54.920Z,24.38
2023-01-29T06:47:21.266Z,25.17
2023-01-29T06:49:47.622Z,28.25
2023-01-29T06:52:13.925Z,24.45
2023-01-29T06:54:40.343Z,21.58
2023-01-29T06:57:06.810Z,26.80
2023-01-29T06:59:33.171Z,24.80
2023-01-29T07:01:59.765Z,22.65
2023-01-29T07:04:26.180Z,23.42
2023-01-29T07:06:52.552Z,24.27
2023-01-29T07:09:18.913Z,26.73
2023-01-29T07:11:45.253Z,23.00
2023-01-29T07:14:11.602Z,24.13
2023-01-29T07:16:37.967Z,24.25
2023-01-29T07:19:04.330Z,24.45
2023-01-29T07:21:30.701Z,27.38
2023-01-29T07:23:57.311Z,22.77
2023-01-29T07:26:23.680Z,24.35
2023-01-29T07:28:50.690Z,25.17
2023-01-29T07:31:17.219Z,23.60
2023-01-29T07:33:44.493Z,22.50
2023-01-29T07:36:11.266Z,17.92
2023-01-29T07:38:37.586Z,27.05
2023-01-29T07:41:03.922Z,21.95
2023-01-29T07:43:30.337Z,21.85
2023-01-29T07:45:56.807Z,19.63
2023-01-29T07:48:23.613Z,21.55
2023-01-29T07:50:56.270Z,21.75
2023-01-29T07:55:49.387Z,20.17
2023-01-29T07:58:15.934Z,18.20
2023-01-29T08:00:42.505Z,22.10
2023-01-29T08:03:13.153Z,20.38
2023-01-29T08:05:39.454Z,23.08
2023-01-29T08:08:07.687Z,22.38
2023-01-29T08:10:38.230Z,26.55
2023-01-29T08:13:04.889Z,22.58
2023-01-29T08:15:32.048Z,25.58
2023-01-29T08:17:58.650Z,20.10
2023-01-29T08:20:25.129Z,23.63
2023-01-29T08:22:58.501Z,21.73
2023-01-29T08:25:25.272Z,20.40
2023-01-29T08:27:51.915Z,20.48
2023-01-29T08:30:18.661Z,22.00
2023-01-29T08:32:45.153Z,19.83
2023-01-29T08:35:11.512Z,18.55
2023-01-29T08:37:37.898Z,21.67
2023-01-29T08:40:04.582Z,23.35
2023-01-29T08:42:31.020Z,22.27
2023-01-29T08:44:57.436Z,20.20
2023-01-29T08:47:23.820Z,22.13
2023-01-29T08:49:50.237Z,22.98
2023-01-29T08:52:16.655Z,23.42
2023-01-29T08:54:43.054Z,21.85
2023-01-29T08:57:09.551Z,21.98
2023-01-29T08:59:35.866Z,22.33
2023-01-29T09:02:02.355Z,24.20
2023-01-29T09:04:28.729Z,20.48
2023-01-29T09:06:55.124Z,25.73
2023-01-29T09:09:21.481Z,19.10
2023-01-29T09:11:47.867Z,19.45
2023-01-29T09:14:14.686Z,18.30
2023-01-29T09:16:41.178Z,21.75
2023-01-29T09:19:08.265Z,19.25
2023-01-29T09:21:34.657Z,24.95
2023-01-29T09:24:00.976Z,19.00
2023-01-29T09:26:27.478Z,22.15
2023-01-29T09:28:53.855Z,23.83
2023-01-29T09:31:20.393Z,21.52
2023-01-29T09:33:46.884Z,22.67
2023-01-29T09:36:14.491Z,19.90
2023-01-29T09:38:40.795Z,23.10
2023-01-29T09:41:25.754Z,20.63
2023-01-29T09:43:56.696Z,22.30
2023-01-29T09:46:25.729Z,23.50
2023-01-29T09:48:57.618Z,25.52
2023-01-29T09:51:30.372Z,20.73
2023-01-29T09:56:28.933Z,22.30
2023-01-29T09:58:57.746Z,16.02
2023-01-29T10:01:33.069Z,21.52
2023-01-29T10:04:17.988Z,17.55
2023-01-29T10:06:47.323Z,27.83
2023-01-29T10:09:32.290Z,21.25
2023-01-29T10:12:01.661Z,19.02
2023-01-29T10:14:37.821Z,25.90
2023-01-29T10:17:22.759Z,19.52
2023-01-29T10:20:09.415Z,20.77
2023-01-29T10:22:45.199Z,22.52
2023-01-29T10:25:13.548Z,20.27
2023-01-29T10:27:41.196Z,20.05
2023-01-29T10:30:19.582Z,21.90
2023-01-29T10:32:46.917Z,26.25
2023-01-29T10:35:13.287Z,21.75
2023-01-29T10:37:41.269Z,22.27
2023-01-29T10:40:27.350Z,20.55
2023-01-29T10:42:53.740Z,21.75
2023-01-29T10:45:30.318Z,20.35
2023-01-29T10:48:15.489Z,22.35
2023-01-29T10:50:41.847Z,22.85
2023-01-29T10:53:17.222Z,21.85
2023-01-29T10:56:05.800Z,24.52
2023-01-29T10:58:37.188Z,24.42
2023-01-29T11:01:04.172Z,24.15
2023-01-29T11:03:31.956Z,24.20
2023-01-29T11:06:04.107Z,24.15
2023-01-29T11:08:52.579Z,23.60
2023-01-29T11:11:21.870Z,23.75
2023-01-29T11:13:48.197Z,22.48
2023-01-29T11:16:14.685Z,24.85
2023-01-29T11:18:51.477Z,23.90
2023-01-29T11:21:17.965Z,24.45
2023-01-29T11:23:44.357Z,27.70
2023-01-29T11:26:12.158Z,25.85
2023-01-29T11:28:42.712Z,25.73
2023-01-29T11:31:35.316Z,24.40
2023-01-29T11:34:04.191Z,24.80
2023-01-29T11:36:38.322Z,33.72
2023-01-29T11:39:21.428Z,23.63
2023-01-29T11:42:12.108Z,25.08
2023-01-29T11:44:39.796Z,25.35
2023-01-29T11:47:12.239Z,25.27
2023-01-29T11:49:39.782Z,27.48
2023-01-29T11:52:08.515Z,31.10
2023-01-29T11:54:38.248Z,28.13
2023-01-29T11:57:04.844Z,31.58
2023-01-29T11:59:37.274Z,35.85
2023-01-29T12:02:05.636Z,34.75
2023-01-29T12:04:32.034Z,32.10
2023-01-29T12:06:58.417Z,33.40
2023-01-29T12:09:29.091Z,29.17
2023-01-29T12:11:55.479Z,35.20
2023-01-29T12:14:35.904Z,33.38
2023-01-29T12:17:02.276Z,33.50
2023-01-29T12:19:34.368Z,31.30
2023-01-29T12:22:05.791Z,35.40
2023-01-29T12:24:35.822Z,27.58
2023-01-29T12:27:21.121Z,29.35
2023-01-29T12:29:47.487Z,34.83
2023-01-29T12:32:16.583Z,31.10
2023-01-29T12:34:49.034Z,31.17
2023-01-29T12:37:51.000Z,29.25
2023-01-29T12:40:18.753Z,29.48
2023-01-29T12:42:48.189Z,32.10
2023-01-29T12:45:18.570Z,29.92
2023-01-29T12:47:58.768Z,30.13
2023-01-29T12:50:25.065Z,30.27
2023-01-29T12:53:11.609Z,30.88
2023-01-29T12:55:42.857Z,32.90
2023-01-29T12:58:12.351Z,30.00
2023-01-29T13:00:40.472Z,32.67
2023-01-29T13:03:19.081Z,32.45
2023-01-29T13:05:52.857Z,30.67
2023-01-29T13:08:27.665Z,31.80
2023-01-29T13:10:54.828Z,30.45
2023-01-29T13:13:24.104Z,26.55
2023-01-29T13:15:52.316Z,31.25
2023-01-29T13:18:29.325Z,34.35
2023-01-29T13:20:55.692Z,30.92
2023-01-29T13:23:24.870Z,34.72
2023-01-29T13:25:54.619Z,32.70
2023-01-29T13:28:25.418Z,26.35
2023-01-29T13:31:10.574Z,34.58
2023-01-29T13:33:37.688Z,50.42
2023-01-29T13:36:04.755Z,25.30
2023-01-29T13:38:33.196Z,31.45
2023-01-29T13:41:08.822Z,33.72
2023-01-29T13:43:39.683Z,28.80
2023-01-29T13:46:13.849Z,28.88
2023-01-29T13:48:44.709Z,32.33
2023-01-29T13:51:19.443Z,27.02
2023-01-29T13:53:54.462Z,29.45
2023-01-29T13:56:33.568Z,30.77
2023-01-29T13:59:01.162Z,31.27
2023-01-29T14:01:46.266Z,28.35
2023-01-29T14:04:31.866Z,30.00
2023-01-29T14:06:59.412Z,29.80
2023-01-29T14:09:49.219Z,28.30
2023-01-29T14:12:21.506Z,28.23
2023-01-29T14:14:58.890Z,31.70
2023-01-29T14:17:27.107Z,29.55
2023-01-29T14:19:56.554Z,27.67
2023-01-29T14:22:27.385Z,28.50
2023-01-29T14:24:55.365Z,26.13
2023-01-29T14:27:22.488Z,25.00
2023-01-29T14:29:51.634Z,29.30
2023-01-29T14:32:20.252Z,27.48
2023-01-29T14:34:59.989Z,32.95
2023-01-29T14:37:29.121Z,35.85
2023-01-29T14:39:57.831Z,28.75
2023-01-29T14:42:35.898Z,24.83
2023-01-29T14:45:30.701Z,23.23
2023-01-29T14:47:57.950Z,26.02
2023-01-29T14:50:28.821Z,26.63
2023-01-29T14:53:01.444Z,28.60
2023-01-29T14:55:35.371Z,29.58
2023-01-29T14:58:02.674Z,24.23
2023-01-29T15:00:34.891Z,27.10
2023-01-29T15:03:02.673Z,25.58
2023-01-29T15:05:31.453Z,29.55
2023-01-29T15:08:13.007Z,26.15
2023-01-29T15:10:48.478Z,29.42
2023-01-29T15:13:22.188Z,28.17
2023-01-29T15:16:02.590Z,24.85
2023-01-29T15:18:39.704Z,33.10
2023-01-29T15:21:17.869Z,28.65
2023-01-29T15:23:44.673Z,26.08
2023-01-29T15:26:14.827Z,26.90
2023-01-29T15:28:42.317Z,25.85
2023-01-29T15:31:17.011Z,25.33
2023-01-29T15:33:45.628Z,23.67
2023-01-29T15:36:23.549Z,21.80
2023-01-29T15:39:04.053Z,25.85
2023-01-29T15:41:30.617Z,24.75
2023-01-29T15:43:57.593Z,24.48
2023-01-29T15:46:25.553Z,23.73
2023-01-29T15:48:53.439Z,24.08
2023-01-29T15:51:20.781Z,24.92
2023-01-29T15:53:51.843Z,25.98
2023-01-29T15:56:19.921Z,26.02
2023-01-29T15:58:48.121Z,28.65
2023-01-29T16:01:15.179Z,27.05
2023-01-29T16:03:41.900Z,24.23
2023-01-29T16:06:08.817Z,26.67
2023-01-29T16:08:35.726Z,24.73
2023-01-29T16:11:03.377Z,28.10
2023-01-29T16:13:30.694Z,32.65
2023-01-29T16:16:00.004Z,28.85
2023-01-29T16:18:36.126Z,26.80
2023-01-29T16:21:26.080Z,25.17
2023-01-29T16:23:55.203Z,31.05
2023-01-29T16:26:24.542Z,31.02
2023-01-29T16:28:51.067Z,30.83
2023-01-29T16:31:21.470Z,31.55
2023-01-29T16:33:49.434Z,31.90
2023-01-29T16:36:24.486Z,28.05
2023-01-29T16:38:54.108Z,36.63
2023-01-29T16:41:23.905Z,35.60
2023-01-29T16:43:50.250Z,35.85
2023-01-29T16:46:36.149Z,28.73
2023-01-29T16:49:22.463Z,27.98
2023-01-29T16:51:48.907Z,30.45
2023-01-29T16:54:18.189Z,32.45
2023-01-29T16:56:45.808Z,30.65
2023-01-29T16:59:17.560Z,27.02
2023-01-29T17:01:43.967Z,22.52
2023-01-29T17:04:13.423Z,31.92
2023-01-29T17:06:44.731Z,32.83
2023-01-29T17:09:20.198Z,33.00
2023-01-29T17:11:46.653Z,36.85
2023-01-29T17:14:16.890Z,33.78
2023-01-29T17:16:50.833Z,33.63
2023-01-29T17:19:18.448Z,37.33
2023-01-29T17:21:44.821Z,33.08
2023-01-29T17:24:11.229Z,38.45
2023-01-29T17:26:37.925Z,38.72
2023-01-29T17:29:04.373Z,35.88
2023-01-29T17:31:30.770Z,33.13
2023-01-29T17:33:57.325Z,31.00
2023-01-29T17:36:23.669Z,39.45
2023-01-29T17:38:50.071Z,37.50
2023-01-29T17:41:25.120Z,36.17
2023-01-29T17:43:51.799Z,30.17
2023-01-29T17:46:18.832Z,32.72
2023-01-29T17:48:45.239Z,35.28
2023-01-29T17:51:15.843Z,35.95
2023-01-29T17:53:46.068Z,34.13
2023-01-29T17:56:24.157Z,39.38
2023-01-29T17:58:50.536Z,36.00
2023-01-29T18:01:16.910Z,35.30
2023-01-29T18:03:43.400Z,39.53
2023-01-29T18:06:10.037Z,25.15
2023-01-29T18:08:37.688Z,32.90
2023-01-29T18:11:04.307Z,41.13
2023-01-29T18:13:30.661Z,25.92
2023-01-29T18:15:57.060Z,37.67
2023-01-29T18:18:24.158Z,37.03
2023-01-29T18:20:50.627Z,37.58
2023-01-29T18:23:17.015Z,35.80
2023-01-29T18:25:44.048Z,40.15
2023-01-29T18:28:13.947Z,35.88
2023-01-29T18:30:41.962Z,34.85
2023-01-29T18:33:08.411Z,35.05
2023-01-29T18:35:34.742Z,34.42
2023-01-29T18:38:01.035Z,34.40
2023-01-29T18:40:27.668Z,34.85
2023-01-29T18:42:54.064Z,44.28
2023-01-29T18:45:20.607Z,29.75
2023-01-29T18:47:48.251Z,41.05
2023-01-29T18:50:14.677Z,33.53
2023-01-29T18:52:41.216Z,39.47
2023-01-29T18:55:09.552Z,33.65
2023-01-29T18:58:27.239Z,40.05
2023-01-29T19:00:25.560Z,39.03
2023-01-29T19:02:52.103Z,39.38
2023-01-29T19:05:22.626Z,41.30
2023-01-29T19:07:48.980Z,45.50
2023-01-29T19:10:16.877Z,36.08
2023-01-29T19:12:43.503Z,41.75
2023-01-29T19:15:10.705Z,34.53
2023-01-29T19:17:37.469Z,38.45
2023-01-29T19:20:04.775Z,36.88
2023-01-29T19:22:31.514Z,22.50
2023-01-29T19:24:57.959Z,36.67
2023-01-29T19:27:25.890Z,31.50
2023-01-29T19:29:52.642Z,33.88
2023-01-29T19:32:19.114Z,29.17
2023-01-29T19:34:45.407Z,36.92
2023-01-29T19:37:12.180Z,42.10
2023-01-29T19:39:38.548Z,35.42
2023-01-29T19:42:04.950Z,36.28
2023-01-29T19:44:31.250Z,31.48
2023-01-29T19:46:57.678Z,35.90
2023-01-29T19:49:24.967Z,39.30
2023-01-29T19:51:51.374Z,27.13
2023-01-29T19:54:18.198Z,36.58
2023-01-29T19:56:44.571Z,36.33
2023-01-29T19:59:10.966Z,33.80
2023-01-29T20:01:37.767Z,38.75
2023-01-29T20:04:04.580Z,34.92
2023-01-29T20:06:30.993Z,35.30
2023-01-29T20:08:57.494Z,37.25
2023-01-29T20:11:24.045Z,34.25
2023-01-29T20:13:51.228Z,31.63
2023-01-29T20:16:18.225Z,35.40
2023-01-29T20:18:44.792Z,36.97
2023-01-29T20:21:12.178Z,35.28
2023-01-29T20:23:39.901Z,33.60
2023-01-29T20:26:12.168Z,36.70
2023-01-29T20:28:38.671Z,38.05
2023-01-29T20:31:05.712Z,35.17
2023-01-29T20:33:32.410Z,40.60
2023-01-29T20:36:00.380Z,42.55
2023-01-29T20:38:34.484Z,38.10
2023-01-29T20:41:04.132Z,39.17
2023-01-29T20:43:30.823Z,44.25
2023-01-29T20:45:57.522Z,48.10
2023-01-29T20:48:24.579Z,39.28
2023-01-29T20:50:51.128Z,38.20
2023-01-29T20:53:17.438Z,38.40
2023-01-29T20:55:44.818Z,33.15
2023-01-29T20:58:11.342Z,36.83
2023-01-29T21:00:38.787Z,42.67
2023-01-29T21:03:05.113Z,40.30
2023-01-29T21:05:31.451Z,39.20
2023-01-29T21:07:57.828Z,43.63
2023-01-29T21:10:25.149Z,40.58
2023-01-29T21:12:51.637Z,39.90
2023-01-29T21:15:17.998Z,38.58
2023-01-29T21:17:44.481Z,48.17
2023-01-29T21:20:11.143Z,50.80
2023-01-29T21:22:37.601Z,42.08
2023-01-29T21:25:04.080Z,43.90
2023-01-29T21:27:30.448Z,41.58
2023-01-29T21:29:57.283Z,42.22
2023-01-29T21:32:23.621Z,42.13
2023-01-29T21:34:52.325Z,44.78
2023-01-29T21:37:18.966Z,46.13
2023-01-29T21:39:45.973Z,41.72
2023-01-29T21:42:30.868Z,37.55
2023-01-29T21:44:57.356Z,50.08
2023-01-29T21:47:23.795Z,44.70
2023-01-29T21:49:50.209Z,49.90
2023-01-29T21:52:16.582Z,44.70
2023-01-29T21:54:49.103Z,46.28
2023-01-29T21:57:15.955Z,50.50
2023-01-29T21:59:42.920Z,42.88
2023-01-29T22:02:11.947Z,38.17
2023-01-29T22:04:38.363Z,43.88
2023-01-29T22:07:04.692Z,40.53
2023-01-29T22:09:31.172Z,37.80
2023-01-29T22:11:58.401Z,44.88
2023-01-29T22:14:24.730Z,43.42
2023-01-29T22:16:51.076Z,50.05
2023-01-29T22:19:17.520Z,42.70
2023-01-29T22:21:44.660Z,40.42
2023-01-29T22:24:11.076Z,44.55
2023-01-29T22:26:37.608Z,42.88
2023-01-29T22:29:03.991Z,38.22
2023-01-29T22:31:30.357Z,40.10
2023-01-29T22:33:56.854Z,42.33
2023-01-29T22:36:23.394Z,44.22
2023-01-29T22:38:49.768Z,44.13
2023-01-29T22:41:16.165Z,40.67
2023-01-29T22:43:43.906Z,41.95
2023-01-29T22:46:11.028Z,39.85
2023-01-29T22:48:37.543Z,44.13
2023-01-29T22:51:10.489Z,43.03
2023-01-29T22:53:41.018Z,36.83
2023-01-29T22:56:07.758Z,38.03
2023-01-29T22:58:34.367Z,38.25
2023-01-29T23:01:00.737Z,36.83
2023-01-29T23:03:27.111Z,42.40
2023-01-29T23:05:53.577Z,26.73
2023-01-29T23:08:20.032Z,34.00
2023-01-29T23:10:46.637Z,46.78
2023-01-29T23:13:13.017Z,43.17
2023-01-29T23:15:39.356Z,42.17
2023-01-29T23:18:05.699Z,42.08
2023-01-29T23:20:31.990Z,44.05
2023-01-29T23:22:58.492Z,43.78
2023-01-29T23:25:44.819Z,44.90
2023-01-29T23:28:11.147Z,36.90
2023-01-29T23:30:37.487Z,41.35
2023-01-29T23:33:04.030Z,39.53
2023-01-29T23:35:30.354Z,34.15
2023-01-29T23:37:56.688Z,36.22
2023-01-29T23:40:23.081Z,37.60
2023-01-29T23:42:49.393Z,30.85
2023-01-29T23:45:15.803Z,40.45
2023-01-29T23:47:42.213Z,35.28
2023-01-29T23:50:08.929Z,42.00
2023-01-29T23:52:35.233Z,36.42
2023-01-29T23:55:01.602Z,41.13
2023-01-29T23:57:28.039Z,36.13
2023-01-29T23:59:54.405Z,42.10
